KTYS/TYS METAR and TAF weather

Enter ICAO airport designator
Station Type Date Time Source
KTYS METAR 2020/09/20 09:53 UTC NOAA

KTYS 200953Z 04007KT 10SM OVC006 14/14 A3025 RMK AO2 SLP236 T01440139


Station Type Date Time Source
KTYS Decoded METAR 2020/09/20 09:53 UTC NOAA

MCGHEE TYSON AIRPORT, TN, United States (KTYS) 35-49N 083-59W 302M
Sep 20, 2020 - 05:53 AM EDT / 2020.09.20 0953 UTC
Wind: from the NE (040 degrees) at 8 MPH (7 KT):0
Visibility: 10 mile(s):0
Sky conditions: overcast
Temperature: 57.9 F (14.4 C)
Dew Point: 57.0 F (13.9 C)
Relative Humidity: 96%
Pressure (altimeter): 30.25 in. Hg (1024 hPa)
ob: KTYS 200953Z 04007KT 10SM OVC006 14/14 A3025 RMK AO2 SLP236 T01440139
cycle: 10

Station Type Date Time Source
KTYS TAF 2020/09/20 08:33 UTC NOAA

TAF
AMD KTYS 200731Z 2008/2106 00000KT 1/4SM FG BKN003
TEMPO 2009/2013 2SM BR SCT005 BKN015
FM201300 06006KT P6SM SCT200

Example: see airport list